sensor_id;sensor_type;location;lat;lon;timestamp;temperature;humidity
8408;DHT22;4241;48.452;9.216;2023-05-27T00:01:24;14.60;99.90
8408;DHT22;4241;48.452;9.216;2023-05-27T00:03:54;14.60;99.90
8408;DHT22;4241;48.452;9.216;2023-05-27T00:06:22;14.40;99.90
8408;DHT22;4241;48.452;9.216;2023-05-27T00:08:49;14.50;99.90
8408;DHT22;4241;48.452;9.216;2023-05-27T00:11:15;14.40;99.90
8408;DHT22;4241;48.452;9.216;2023-05-27T00:13:42;14.30;99.90
8408;DHT22;4241;48.452;9.216;2023-05-27T00:16:09;14.40;99.90
8408;DHT22;4241;48.452;9.216;2023-05-27T00:18:36;14.40;99.90
8408;DHT22;4241;48.452;9.216;2023-05-27T00:21:03;14.30;99.90
8408;DHT22;4241;48.452;9.216;2023-05-27T00:23:32;14.30;99.90
8408;DHT22;4241;48.452;9.216;2023-05-27T00:25:58;14.30;99.90
8408;DHT22;4241;48.452;9.216;2023-05-27T00:28:25;14.20;99.90
8408;DHT22;4241;48.452;9.216;2023-05-27T00:33:22;14.30;99.90
8408;DHT22;4241;48.452;9.216;2023-05-27T00:35:49;14.10;99.90
8408;DHT22;4241;48.452;9.216;2023-05-27T00:38:16;14.00;99.90
8408;DHT22;4241;48.452;9.216;2023-05-27T00:40:44;14.00;99.90
8408;DHT22;4241;48.452;9.216;2023-05-27T00:43:12;13.90;99.90
8408;DHT22;4241;48.452;9.216;2023-05-27T00:45:39;14.00;99.90
8408;DHT22;4241;48.452;9.216;2023-05-27T00:53:00;14.00;99.90
8408;DHT22;4241;48.452;9.216;2023-05-27T00:55:27;13.90;99.90
8408;DHT22;4241;48.452;9.216;2023-05-27T00:57:56;13.90;99.90
8408;DHT22;4241;48.452;9.216;2023-05-27T01:00:23;13.70;99.90
8408;DHT22;4241;48.452;9.216;2023-05-27T01:02:50;14.00;99.90
8408;DHT22;4241;48.452;9.216;2023-05-27T01:05:17;13.80;99.90
8408;DHT22;4241;48.452;9.216;2023-05-27T01:07:59;13.70;99.90
8408;DHT22;4241;48.452;9.216;2023-05-27T01:10:36;13.80;99.90
8408;DHT22;4241;48.452;9.216;2023-05-27T01:13:13;13.80;99.90
8408;DHT22;4241;48.452;9.216;2023-05-27T01:18:09;13.80;99.90
8408;DHT22;4241;48.452;9.216;2023-05-27T01:20:36;13.70;99.90
8408;DHT22;4241;48.452;9.216;2023-05-27T01:23:08;13.60;99.90
8408;DHT22;4241;48.452;9.216;2023-05-27T01:28:02;13.60;99.90
8408;DHT22;4241;48.452;9.216;2023-05-27T01:30:29;13.50;99.90
8408;DHT22;4241;48.452;9.216;2023-05-27T01:33:00;13.50;99.90
8408;DHT22;4241;48.452;9.216;2023-05-27T01:35:31;13.60;99.90
8408;DHT22;4241;48.452;9.216;2023-05-27T01:38:05;13.40;99.90
8408;DHT22;4241;48.452;9.216;2023-05-27T01:40:38;13.50;99.90
8408;DHT22;4241;48.452;9.216;2023-05-27T01:43:05;13.40;99.90
8408;DHT22;4241;48.452;9.216;2023-05-27T01:45:33;13.40;99.90
8408;DHT22;4241;48.452;9.216;2023-05-27T01:50:27;13.40;99.90
8408;DHT22;4241;48.452;9.216;2023-05-27T01:52:55;13.30;99.90
8408;DHT22;4241;48.452;9.216;2023-05-27T01:55:22;13.40;99.90
8408;DHT22;4241;48.452;9.216;2023-05-27T01:57:51;13.40;99.90
8408;DHT22;4241;48.452;9.216;2023-05-27T02:00:18;13.40;99.90
8408;DHT22;4241;48.452;9.216;2023-05-27T02:05:12;13.20;99.90
8408;DHT22;4241;48.452;9.216;2023-05-27T02:07:39;13.00;99.90
8408;DHT22;4241;48.452;9.216;2023-05-27T02:10:07;13.10;99.90
8408;DHT22;4241;48.452;9.216;2023-05-27T02:12:33;13.00;99.90
8408;DHT22;4241;48.452;9.216;2023-05-27T02:15:02;13.00;99.90
8408;DHT22;4241;48.452;9.216;2023-05-27T02:17:29;13.00;99.90
8408;DHT22;4241;48.452;9.216;2023-05-27T02:19:56;12.90;99.90
8408;DHT22;4241;48.452;9.216;2023-05-27T02:22:23;12.80;99.90
8408;DHT22;4241;48.452;9.216;2023-05-27T02:27:17;12.80;99.90
8408;DHT22;4241;48.452;9.216;2023-05-27T02:29:46;12.40;99.90
8408;DHT22;4241;48.452;9.216;2023-05-27T02:32:15;12.60;99.90
8408;DHT22;4241;48.452;9.216;2023-05-27T02:37:09;12.30;99.90
8408;DHT22;4241;48.452;9.216;2023-05-27T02:46:57;12.20;99.90
8408;DHT22;4241;48.452;9.216;2023-05-27T02:49:25;12.20;99.90
8408;DHT22;4241;48.452;9.216;2023-05-27T02:56:46;12.10;99.90
8408;DHT22;4241;48.452;9.216;2023-05-27T03:01:40;12.20;99.90
8408;DHT22;4241;48.452;9.216;2023-05-27T03:06:35;12.20;99.90
8408;DHT22;4241;48.452;9.216;2023-05-27T03:09:03;12.00;99.90
8408;DHT22;4241;48.452;9.216;2023-05-27T03:11:29;11.80;99.90
8408;DHT22;4241;48.452;9.216;2023-05-27T03:16:23;11.70;99.90
8408;DHT22;4241;48.452;9.216;2023-05-27T03:18:50;11.70;99.90
8408;DHT22;4241;48.452;9.216;2023-05-27T03:23:45;11.80;99.90
8408;DHT22;4241;48.452;9.216;2023-05-27T03:26:12;11.90;99.90
8408;DHT22;4241;48.452;9.216;2023-05-27T03:28:39;11.70;99.90
8408;DHT22;4241;48.452;9.216;2023-05-27T03:31:06;11.70;99.90
8408;DHT22;4241;48.452;9.216;2023-05-27T03:38:28;11.70;99.90
8408;DHT22;4241;48.452;9.216;2023-05-27T03:40:56;11.70;99.90
8408;DHT22;4241;48.452;9.216;2023-05-27T03:48:17;11.60;99.90
8408;DHT22;4241;48.452;9.216;2023-05-27T03:50:44;11.60;99.90
8408;DHT22;4241;48.452;9.216;2023-05-27T03:53:10;11.60;99.90
8408;DHT22;4241;48.452;9.216;2023-05-27T03:55:37;11.60;99.90
8408;DHT22;4241;48.452;9.216;2023-05-27T03:58:05;11.60;99.90
8408;DHT22;4241;48.452;9.216;2023-05-27T04:00:32;11.60;99.90
8408;DHT22;4241;48.452;9.216;2023-05-27T04:05:28;11.60;99.90
8408;DHT22;4241;48.452;9.216;2023-05-27T04:07:55;11.50;99.90
8408;DHT22;4241;48.452;9.216;2023-05-27T04:10:22;11.60;99.90
8408;DHT22;4241;48.452;9.216;2023-05-27T04:12:49;11.80;99.90
8408;DHT22;4241;48.452;9.216;2023-05-27T04:15:17;11.80;99.90
8408;DHT22;4241;48.452;9.216;2023-05-27T04:17:43;11.80;99.90
8408;DHT22;4241;48.452;9.216;2023-05-27T04:20:11;11.90;99.90
8408;DHT22;4241;48.452;9.216;2023-05-27T04:25:08;11.80;99.90
8408;DHT22;4241;48.452;9.216;2023-05-27T04:27:34;11.80;99.90
8408;DHT22;4241;48.452;9.216;2023-05-27T04:32:30;11.80;99.90
8408;DHT22;4241;48.452;9.216;2023-05-27T04:34:58;11.90;99.90
8408;DHT22;4241;48.452;9.216;2023-05-27T04:37:25;12.00;99.90
8408;DHT22;4241;48.452;9.216;2023-05-27T04:39:53;11.90;99.90
8408;DHT22;4241;48.452;9.216;2023-05-27T04:44:49;11.80;99.90
8408;DHT22;4241;48.452;9.216;2023-05-27T04:47:17;12.10;99.90
8408;DHT22;4241;48.452;9.216;2023-05-27T04:49:45;11.90;99.90
8408;DHT22;4241;48.452;9.216;2023-05-27T04:52:12;11.90;99.90
8408;DHT22;4241;48.452;9.216;2023-05-27T04:54:39;12.00;99.90
8408;DHT22;4241;48.452;9.216;2023-05-27T04:57:09;12.00;99.90
8408;DHT22;4241;48.452;9.216;2023-05-27T04:59:35;12.00;99.90
8408;DHT22;4241;48.452;9.216;2023-05-27T05:02:25;12.10;99.90
8408;DHT22;4241;48.452;9.216;2023-05-27T05:05:00;12.10;99.90
8408;DHT22;4241;48.452;9.216;2023-05-27T05:14:51;12.20;99.90
8408;DHT22;4241;48.452;9.216;2023-05-27T05:17:18;12.30;99.90
8408;DHT22;4241;48.452;9.216;2023-05-27T05:19:45;12.50;99.90
8408;DHT22;4241;48.452;9.216;2023-05-27T05:22:13;12.30;99.90
8408;DHT22;4241;48.452;9.216;2023-05-27T05:27:10;12.50;99.90
8408;DHT22;4241;48.452;9.216;2023-05-27T05:29:37;12.60;99.90
8408;DHT22;4241;48.452;9.216;2023-05-27T05:32:05;12.60;99.90
8408;DHT22;4241;48.452;9.216;2023-05-27T05:36:59;12.60;99.90
8408;DHT22;4241;48.452;9.216;2023-05-27T05:39:27;12.70;99.90
8408;DHT22;4241;48.452;9.216;2023-05-27T05:41:54;12.80;99.90
8408;DHT22;4241;48.452;9.216;2023-05-27T05:46:48;12.80;99.90
8408;DHT22;4241;48.452;9.216;2023-05-27T05:49:15;12.90;99.90
8408;DHT22;4241;48.452;9.216;2023-05-27T05:54:09;13.00;99.90
8408;DHT22;4241;48.452;9.216;2023-05-27T05:56:37;13.10;99.90
8408;DHT22;4241;48.452;9.216;2023-05-27T06:01:31;13.20;99.90
8408;DHT22;4241;48.452;9.216;2023-05-27T06:03:58;13.50;99.90
8408;DHT22;4241;48.452;9.216;2023-05-27T06:08:56;13.80;99.90
8408;DHT22;4241;48.452;9.216;2023-05-27T06:11:23;14.00;99.90
8408;DHT22;4241;48.452;9.216;2023-05-27T06:13:53;14.00;99.90
8408;DHT22;4241;48.452;9.216;2023-05-27T06:23:41;14.40;99.90
8408;DHT22;4241;48.452;9.216;2023-05-27T06:26:07;14.50;99.90
8408;DHT22;4241;48.452;9.216;2023-05-27T06:28:34;14.70;99.90
8408;DHT22;4241;48.452;9.216;2023-05-27T06:31:02;14.80;99.90
8408;DHT22;4241;48.452;9.216;2023-05-27T06:33:29;14.90;99.90
8408;DHT22;4241;48.452;9.216;2023-05-27T06:38:23;15.20;99.90
8408;DHT22;4241;48.452;9.216;2023-05-27T06:40:50;15.50;99.90
8408;DHT22;4241;48.452;9.216;2023-05-27T06:43:17;15.50;99.90
8408;DHT22;4241;48.452;9.216;2023-05-27T06:45:44;15.60;99.90
8408;DHT22;4241;48.452;9.216;2023-05-27T06:48:12;15.60;99.90
8408;DHT22;4241;48.452;9.216;2023-05-27T06:50:39;16.10;99.90
8408;DHT22;4241;48.452;9.216;2023-05-27T06:53:06;16.20;99.90
8408;DHT22;4241;48.452;9.216;2023-05-27T06:55:33;16.20;99.90
8408;DHT22;4241;48.452;9.216;2023-05-27T06:57:59;16.40;99.90
8408;DHT22;4241;48.452;9.216;2023-05-27T07:00:26;16.60;99.90
8408;DHT22;4241;48.452;9.216;2023-05-27T07:02:56;16.70;99.90
8408;DHT22;4241;48.452;9.216;2023-05-27T07:05:24;16.90;99.90
8408;DHT22;4241;48.452;9.216;2023-05-27T07:07:51;17.00;99.90
8408;DHT22;4241;48.452;9.216;2023-05-27T07:10:17;17.10;99.90
8408;DHT22;4241;48.452;9.216;2023-05-27T07:12:44;17.30;99.90
8408;DHT22;4241;48.452;9.216;2023-05-27T07:15:12;17.30;99.90
8408;DHT22;4241;48.452;9.216;2023-05-27T07:20:07;17.70;99.90
8408;DHT22;4241;48.452;9.216;2023-05-27T07:22:35;17.50;99.90
8408;DHT22;4241;48.452;9.216;2023-05-27T07:25:02;17.70;99.90
8408;DHT22;4241;48.452;9.216;2023-05-27T07:27:29;17.70;99.90
8408;DHT22;4241;48.452;9.216;2023-05-27T07:29:56;17.90;99.90
8408;DHT22;4241;48.452;9.216;2023-05-27T07:32:23;17.90;99.90
8408;DHT22;4241;48.452;9.216;2023-05-27T07:34:50;18.00;99.90
8408;DHT22;4241;48.452;9.216;2023-05-27T07:37:17;17.90;99.90
8408;DHT22;4241;48.452;9.216;2023-05-27T07:39:45;18.20;99.90
8408;DHT22;4241;48.452;9.216;2023-05-27T07:42:12;18.20;99.90
8408;DHT22;4241;48.452;9.216;2023-05-27T07:44:39;18.20;99.90
8408;DHT22;4241;48.452;9.216;2023-05-27T07:47:05;18.30;99.90
8408;DHT22;4241;48.452;9.216;2023-05-27T07:49:32;18.30;99.90
8408;DHT22;4241;48.452;9.216;2023-05-27T07:51:59;18.30;99.90
8408;DHT22;4241;48.452;9.216;2023-05-27T07:54:26;18.90;99.90
8408;DHT22;4241;48.452;9.216;2023-05-27T07:56:54;19.00;99.90
8408;DHT22;4241;48.452;9.216;2023-05-27T07:59:23;19.30;99.90
8408;DHT22;4241;48.452;9.216;2023-05-27T08:01:50;19.40;99.90
8408;DHT22;4241;48.452;9.216;2023-05-27T08:04:17;19.50;99.90
8408;DHT22;4241;48.452;9.216;2023-05-27T08:06:43;19.60;99.90
8408;DHT22;4241;48.452;9.216;2023-05-27T08:09:10;19.80;99.90
8408;DHT22;4241;48.452;9.216;2023-05-27T08:11:37;20.00;99.90
8408;DHT22;4241;48.452;9.216;2023-05-27T08:14:05;20.30;99.90
8408;DHT22;4241;48.452;9.216;2023-05-27T08:16:32;20.30;99.90
8408;DHT22;4241;48.452;9.216;2023-05-27T08:18:59;20.60;99.90
8408;DHT22;4241;48.452;9.216;2023-05-27T08:21:26;20.70;99.90
8408;DHT22;4241;48.452;9.216;2023-05-27T08:23:53;20.70;99.90
8408;DHT22;4241;48.452;9.216;2023-05-27T08:26:20;20.80;99.90
8408;DHT22;4241;48.452;9.216;2023-05-27T08:28:47;21.00;99.90
8408;DHT22;4241;48.452;9.216;2023-05-27T08:31:15;21.10;99.90
8408;DHT22;4241;48.452;9.216;2023-05-27T08:33:42;21.10;99.90
8408;DHT22;4241;48.452;9.216;2023-05-27T08:36:09;21.60;99.90
8408;DHT22;4241;48.452;9.216;2023-05-27T08:38:37;21.60;99.90
8408;DHT22;4241;48.452;9.216;2023-05-27T08:41:03;21.70;99.90
8408;DHT22;4241;48.452;9.216;2023-05-27T08:43:31;21.70;99.90
8408;DHT22;4241;48.452;9.216;2023-05-27T08:46:00;21.70;99.90
8408;DHT22;4241;48.452;9.216;2023-05-27T08:48:29;21.90;99.90
8408;DHT22;4241;48.452;9.216;2023-05-27T08:50:56;22.00;99.90
8408;DHT22;4241;48.452;9.216;2023-05-27T08:53:24;22.30;99.90
8408;DHT22;4241;48.452;9.216;2023-05-27T08:55:53;22.40;99.90
8408;DHT22;4241;48.452;9.216;2023-05-27T08:58:20;22.50;99.90
8408;DHT22;4241;48.452;9.216;2023-05-27T09:00:48;22.50;99.90
8408;DHT22;4241;48.452;9.216;2023-05-27T09:03:15;22.50;99.80
8408;DHT22;4241;48.452;9.216;2023-05-27T09:05:43;22.70;99.90
8408;DHT22;4241;48.452;9.216;2023-05-27T09:08:10;23.00;99.90
8408;DHT22;4241;48.452;9.216;2023-05-27T09:10:37;22.90;99.90
8408;DHT22;4241;48.452;9.216;2023-05-27T09:13:04;23.00;97.70
8408;DHT22;4241;48.452;9.216;2023-05-27T09:15:32;23.10;97.50
8408;DHT22;4241;48.452;9.216;2023-05-27T09:17:59;23.30;98.80
8408;DHT22;4241;48.452;9.216;2023-05-27T09:20:26;23.40;98.40
8408;DHT22;4241;48.452;9.216;2023-05-27T09:22:57;23.40;97.10
8408;DHT22;4241;48.452;9.216;2023-05-27T09:25:24;23.40;96.80
8408;DHT22;4241;48.452;9.216;2023-05-27T09:27:52;23.50;96.70
8408;DHT22;4241;48.452;9.216;2023-05-27T09:30:20;23.50;96.90
8408;DHT22;4241;48.452;9.216;2023-05-27T09:32:47;23.60;95.70
8408;DHT22;4241;48.452;9.216;2023-05-27T09:35:15;23.60;96.30
8408;DHT22;4241;48.452;9.216;2023-05-27T09:37:43;23.60;96.30
8408;DHT22;4241;48.452;9.216;2023-05-27T09:40:13;23.50;95.50
8408;DHT22;4241;48.452;9.216;2023-05-27T09:42:41;23.50;95.40
8408;DHT22;4241;48.452;9.216;2023-05-27T09:45:11;23.40;93.80
8408;DHT22;4241;48.452;9.216;2023-05-27T09:47:39;23.30;93.80
8408;DHT22;4241;48.452;9.216;2023-05-27T09:50:08;23.40;93.60
8408;DHT22;4241;48.452;9.216;2023-05-27T09:52:36;23.40;93.30
8408;DHT22;4241;48.452;9.216;2023-05-27T09:55:06;23.60;94.70
8408;DHT22;4241;48.452;9.216;2023-05-27T09:57:35;23.70;94.40
8408;DHT22;4241;48.452;9.216;2023-05-27T10:00:03;23.80;93.60
8408;DHT22;4241;48.452;9.216;2023-05-27T10:02:36;23.50;85.70
8408;DHT22;4241;48.452;9.216;2023-05-27T10:05:06;23.60;86.00
8408;DHT22;4241;48.452;9.216;2023-05-27T10:07:36;24.60;87.20
8408;DHT22;4241;48.452;9.216;2023-05-27T10:10:05;23.50;88.50
8408;DHT22;4241;48.452;9.216;2023-05-27T10:12:32;23.30;87.90
8408;DHT22;4241;48.452;9.216;2023-05-27T10:15:00;23.40;92.10
8408;DHT22;4241;48.452;9.216;2023-05-27T10:17:27;23.70;92.70
8408;DHT22;4241;48.452;9.216;2023-05-27T10:19:56;24.10;91.20
8408;DHT22;4241;48.452;9.216;2023-05-27T10:22:23;24.50;90.30
8408;DHT22;4241;48.452;9.216;2023-05-27T10:24:50;24.50;90.30
8408;DHT22;4241;48.452;9.216;2023-05-27T10:27:19;25.10;86.10
8408;DHT22;4241;48.452;9.216;2023-05-27T10:29:57;25.20;82.30
8408;DHT22;4241;48.452;9.216;2023-05-27T10:32:25;25.30;82.80
8408;DHT22;4241;48.452;9.216;2023-05-27T10:34:53;25.30;81.30
8408;DHT22;4241;48.452;9.216;2023-05-27T10:37:21;25.20;72.50
8408;DHT22;4241;48.452;9.216;2023-05-27T10:39:55;25.10;74.00
8408;DHT22;4241;48.452;9.216;2023-05-27T10:42:22;25.00;80.30
8408;DHT22;4241;48.452;9.216;2023-05-27T10:44:49;24.90;77.50
8408;DHT22;4241;48.452;9.216;2023-05-27T10:47:29;25.00;79.50
8408;DHT22;4241;48.452;9.216;2023-05-27T10:49:57;24.90;79.00
8408;DHT22;4241;48.452;9.216;2023-05-27T10:52:24;25.10;81.90
8408;DHT22;4241;48.452;9.216;2023-05-27T10:54:53;25.30;81.10
8408;DHT22;4241;48.452;9.216;2023-05-27T10:57:23;25.30;81.00
8408;DHT22;4241;48.452;9.216;2023-05-27T10:59:52;25.50;83.80
8408;DHT22;4241;48.452;9.216;2023-05-27T11:02:19;25.40;72.00
8408;DHT22;4241;48.452;9.216;2023-05-27T11:04:48;25.60;79.50
8408;DHT22;4241;48.452;9.216;2023-05-27T11:07:17;25.70;80.30
8408;DHT22;4241;48.452;9.216;2023-05-27T11:09:45;25.70;75.10
8408;DHT22;4241;48.452;9.216;2023-05-27T11:12:15;25.70;75.50
8408;DHT22;4241;48.452;9.216;2023-05-27T11:14:42;25.80;75.90
8408;DHT22;4241;48.452;9.216;2023-05-27T11:17:09;25.80;73.30
8408;DHT22;4241;48.452;9.216;2023-05-27T11:19:38;26.10;79.00
8408;DHT22;4241;48.452;9.216;2023-05-27T11:22:08;26.10;79.20
8408;DHT22;4241;48.452;9.216;2023-05-27T11:24:35;26.00;71.70
8408;DHT22;4241;48.452;9.216;2023-05-27T11:27:08;25.90;68.60
8408;DHT22;4241;48.452;9.216;2023-05-27T11:29:35;26.00;70.80
8408;DHT22;4241;48.452;9.216;2023-05-27T11:32:02;26.00;69.40
8408;DHT22;4241;48.452;9.216;2023-05-27T11:34:29;25.90;68.00
8408;DHT22;4241;48.452;9.216;2023-05-27T11:37:01;25.90;69.70
8408;DHT22;4241;48.452;9.216;2023-05-27T11:39:31;25.90;71.00
8408;DHT22;4241;48.452;9.216;2023-05-27T11:41:58;26.30;72.10
8408;DHT22;4241;48.452;9.216;2023-05-27T11:44:26;26.40;70.80
8408;DHT22;4241;48.452;9.216;2023-05-27T11:46:59;26.50;71.30
8408;DHT22;4241;48.452;9.216;2023-05-27T11:49:26;26.70;69.40
8408;DHT22;4241;48.452;9.216;2023-05-27T11:51:55;26.80;70.20
8408;DHT22;4241;48.452;9.216;2023-05-27T11:54:23;26.70;66.00
8408;DHT22;4241;48.452;9.216;2023-05-27T11:56:53;26.70;66.90
8408;DHT22;4241;48.452;9.216;2023-05-27T11:59:21;26.60;65.10
8408;DHT22;4241;48.452;9.216;2023-05-27T12:01:48;26.70;64.70
8408;DHT22;4241;48.452;9.216;2023-05-27T12:04:16;26.90;64.20
8408;DHT22;4241;48.452;9.216;2023-05-27T12:06:44;26.80;64.40
8408;DHT22;4241;48.452;9.216;2023-05-27T12:09:13;26.90;66.70
8408;DHT22;4241;48.452;9.216;2023-05-27T12:11:40;27.20;66.20
8408;DHT22;4241;48.452;9.216;2023-05-27T12:14:09;27.20;63.40
8408;DHT22;4241;48.452;9.216;2023-05-27T12:16:35;27.20;64.50
8408;DHT22;4241;48.452;9.216;2023-05-27T12:19:02;27.20;64.80
8408;DHT22;4241;48.452;9.216;2023-05-27T12:21:29;27.00;59.60
8408;DHT22;4241;48.452;9.216;2023-05-27T12:23:56;27.00;63.60
8408;DHT22;4241;48.452;9.216;2023-05-27T12:26:23;27.00;62.80
8408;DHT22;4241;48.452;9.216;2023-05-27T12:28:50;27.00;61.40
8408;DHT22;4241;48.452;9.216;2023-05-27T12:31:18;27.00;61.70
8408;DHT22;4241;48.452;9.216;2023-05-27T12:33:45;27.00;63.10
8408;DHT22;4241;48.452;9.216;2023-05-27T12:36:12;27.10;62.60
8408;DHT22;4241;48.452;9.216;2023-05-27T12:38:38;26.80;56.50
8408;DHT22;4241;48.452;9.216;2023-05-27T12:41:05;26.70;56.50
8408;DHT22;4241;48.452;9.216;2023-05-27T12:43:32;26.40;55.60
8408;DHT22;4241;48.452;9.216;2023-05-27T12:45:59;26.70;59.70
8408;DHT22;4241;48.452;9.216;2023-05-27T12:48:27;26.70;60.10
8408;DHT22;4241;48.452;9.216;2023-05-27T12:50:54;27.10;58.50
8408;DHT22;4241;48.452;9.216;2023-05-27T12:53:21;27.20;61.50
8408;DHT22;4241;48.452;9.216;2023-05-27T12:55:48;27.30;57.80
8408;DHT22;4241;48.452;9.216;2023-05-27T12:58:15;27.40;58.10
8408;DHT22;4241;48.452;9.216;2023-05-27T13:00:42;27.30;56.50
8408;DHT22;4241;48.452;9.216;2023-05-27T13:03:10;27.40;61.00
8408;DHT22;4241;48.452;9.216;2023-05-27T13:05:38;27.50;59.20
8408;DHT22;4241;48.452;9.216;2023-05-27T13:08:05;27.50;56.50
8408;DHT22;4241;48.452;9.216;2023-05-27T13:10:32;27.80;57.40
8408;DHT22;4241;48.452;9.216;2023-05-27T13:13:00;27.60;56.00
8408;DHT22;4241;48.452;9.216;2023-05-27T13:15:28;27.60;56.50
8408;DHT22;4241;48.452;9.216;2023-05-27T13:17:55;27.70;56.40
8408;DHT22;4241;48.452;9.216;2023-05-27T13:20:24;27.70;56.90
8408;DHT22;4241;48.452;9.216;2023-05-27T13:22:55;27.70;56.20
8408;DHT22;4241;48.452;9.216;2023-05-27T13:25:25;27.80;58.80
8408;DHT22;4241;48.452;9.216;2023-05-27T13:27:52;27.80;58.80
8408;DHT22;4241;48.452;9.216;2023-05-27T13:30:20;27.80;58.60
8408;DHT22;4241;48.452;9.216;2023-05-27T13:32:47;27.40;57.90
8408;DHT22;4241;48.452;9.216;2023-05-27T13:35:14;27.30;59.00
8408;DHT22;4241;48.452;9.216;2023-05-27T13:37:43;27.30;59.90
8408;DHT22;4241;48.452;9.216;2023-05-27T13:40:12;27.10;59.70
8408;DHT22;4241;48.452;9.216;2023-05-27T13:42:39;27.20;59.00
8408;DHT22;4241;48.452;9.216;2023-05-27T13:45:07;27.10;60.40
8408;DHT22;4241;48.452;9.216;2023-05-27T13:47:34;27.10;57.90
8408;DHT22;4241;48.452;9.216;2023-05-27T13:50:00;27.10;60.30
8408;DHT22;4241;48.452;9.216;2023-05-27T13:52:27;27.10;60.40
8408;DHT22;4241;48.452;9.216;2023-05-27T13:54:54;27.00;59.20
8408;DHT22;4241;48.452;9.216;2023-05-27T13:57:22;26.90;59.50
8408;DHT22;4241;48.452;9.216;2023-05-27T13:59:49;27.00;61.40
8408;DHT22;4241;48.452;9.216;2023-05-27T14:02:15;27.20;62.60
8408;DHT22;4241;48.452;9.216;2023-05-27T14:04:42;27.20;62.90
8408;DHT22;4241;48.452;9.216;2023-05-27T14:07:09;27.20;58.60
8408;DHT22;4241;48.452;9.216;2023-05-27T14:09:36;27.20;58.90
8408;DHT22;4241;48.452;9.216;2023-05-27T14:12:04;27.20;59.50
8408;DHT22;4241;48.452;9.216;2023-05-27T14:14:32;27.50;59.80
8408;DHT22;4241;48.452;9.216;2023-05-27T14:16:59;27.40;56.40
8408;DHT22;4241;48.452;9.216;2023-05-27T14:19:26;27.00;55.80
8408;DHT22;4241;48.452;9.216;2023-05-27T14:21:52;26.70;56.60
8408;DHT22;4241;48.452;9.216;2023-05-27T14:24:19;26.70;56.80
8408;DHT22;4241;48.452;9.216;2023-05-27T14:26:46;26.70;57.10
8408;DHT22;4241;48.452;9.216;2023-05-27T14:29:13;26.70;57.80
8408;DHT22;4241;48.452;9.216;2023-05-27T14:31:41;26.50;57.10
8408;DHT22;4241;48.452;9.216;2023-05-27T14:34:08;26.50;57.20
8408;DHT22;4241;48.452;9.216;2023-05-27T14:36:35;26.60;59.50
8408;DHT22;4241;48.452;9.216;2023-05-27T14:39:02;26.70;55.80
8408;DHT22;4241;48.452;9.216;2023-05-27T14:41:31;26.70;56.00
8408;DHT22;4241;48.452;9.216;2023-05-27T14:43:58;26.80;56.10
8408;DHT22;4241;48.452;9.216;2023-05-27T14:46:25;26.90;58.30
8408;DHT22;4241;48.452;9.216;2023-05-27T14:48:53;27.10;58.30
8408;DHT22;4241;48.452;9.216;2023-05-27T14:51:20;27.00;58.30
8408;DHT22;4241;48.452;9.216;2023-05-27T14:53:46;26.80;55.90
8408;DHT22;4241;48.452;9.216;2023-05-27T14:56:13;26.80;57.50
8408;DHT22;4241;48.452;9.216;2023-05-27T14:58:40;26.80;58.10
8408;DHT22;4241;48.452;9.216;2023-05-27T15:01:07;26.80;56.50
8408;DHT22;4241;48.452;9.216;2023-05-27T15:03:36;26.60;56.50
8408;DHT22;4241;48.452;9.216;2023-05-27T15:06:04;26.80;57.70
8408;DHT22;4241;48.452;9.216;2023-05-27T15:08:34;26.70;57.80
8408;DHT22;4241;48.452;9.216;2023-05-27T15:11:01;26.90;59.50
8408;DHT22;4241;48.452;9.216;2023-05-27T15:13:28;27.20;59.50
8408;DHT22;4241;48.452;9.216;2023-05-27T15:15:55;27.20;59.70
8408;DHT22;4241;48.452;9.216;2023-05-27T15:18:22;27.30;57.40
8408;DHT22;4241;48.452;9.216;2023-05-27T15:20:48;27.50;54.10
8408;DHT22;4241;48.452;9.216;2023-05-27T15:23:17;27.40;54.70
8408;DHT22;4241;48.452;9.216;2023-05-27T15:25:44;27.40;56.80
8408;DHT22;4241;48.452;9.216;2023-05-27T15:28:11;27.50;54.90
8408;DHT22;4241;48.452;9.216;2023-05-27T15:30:37;27.40;53.30
8408;DHT22;4241;48.452;9.216;2023-05-27T15:33:04;27.30;53.70
8408;DHT22;4241;48.452;9.216;2023-05-27T15:35:31;27.50;55.10
8408;DHT22;4241;48.452;9.216;2023-05-27T15:37:58;27.40;52.40
8408;DHT22;4241;48.452;9.216;2023-05-27T15:40:27;27.20;54.40
8408;DHT22;4241;48.452;9.216;2023-05-27T15:42:54;27.20;54.70
8408;DHT22;4241;48.452;9.216;2023-05-27T15:45:21;27.40;53.80
8408;DHT22;4241;48.452;9.216;2023-05-27T15:47:48;27.40;53.80
8408;DHT22;4241;48.452;9.216;2023-05-27T15:50:15;27.60;54.70
8408;DHT22;4241;48.452;9.216;2023-05-27T15:52:42;28.00;56.80
8408;DHT22;4241;48.452;9.216;2023-05-27T15:55:08;28.00;53.30
8408;DHT22;4241;48.452;9.216;2023-05-27T15:57:36;28.10;53.50
8408;DHT22;4241;48.452;9.216;2023-05-27T16:00:04;28.00;53.30
8408;DHT22;4241;48.452;9.216;2023-05-27T16:02:34;28.00;51.10
8408;DHT22;4241;48.452;9.216;2023-05-27T16:05:01;28.00;52.30
8408;DHT22;4241;48.452;9.216;2023-05-27T16:07:28;28.20;54.60
8408;DHT22;4241;48.452;9.216;2023-05-27T16:09:54;28.10;51.20
8408;DHT22;4241;48.452;9.216;2023-05-27T16:12:23;28.20;51.30
8408;DHT22;4241;48.452;9.216;2023-05-27T16:14:51;28.20;50.40
8408;DHT22;4241;48.452;9.216;2023-05-27T16:17:18;28.40;54.00
8408;DHT22;4241;48.452;9.216;2023-05-27T16:19:46;28.80;54.80
8408;DHT22;4241;48.452;9.216;2023-05-27T16:22:12;28.80;55.80
8408;DHT22;4241;48.452;9.216;2023-05-27T16:24:39;28.90;53.30
8408;DHT22;4241;48.452;9.216;2023-05-27T16:27:06;29.50;52.80
8408;DHT22;4241;48.452;9.216;2023-05-27T16:29:33;29.50;52.50
8408;DHT22;4241;48.452;9.216;2023-05-27T16:32:01;29.90;55.30
8408;DHT22;4241;48.452;9.216;2023-05-27T16:34:28;29.70;53.10
8408;DHT22;4241;48.452;9.216;2023-05-27T16:36:55;29.70;51.10
8408;DHT22;4241;48.452;9.216;2023-05-27T16:39:22;29.80;49.60
8408;DHT22;4241;48.452;9.216;2023-05-27T16:41:49;30.10;51.50
8408;DHT22;4241;48.452;9.216;2023-05-27T16:44:16;30.10;48.30
8408;DHT22;4241;48.452;9.216;2023-05-27T16:46:43;30.30;46.90
8408;DHT22;4241;48.452;9.216;2023-05-27T16:49:11;30.60;48.70
8408;DHT22;4241;48.452;9.216;2023-05-27T16:51:38;30.50;48.90
8408;DHT22;4241;48.452;9.216;2023-05-27T16:54:05;30.80;46.60
8408;DHT22;4241;48.452;9.216;2023-05-27T16:56:31;30.80;49.00
8408;DHT22;4241;48.452;9.216;2023-05-27T16:58:58;30.80;46.60
8408;DHT22;4241;48.452;9.216;2023-05-27T17:01:26;30.90;44.80
8408;DHT22;4241;48.452;9.216;2023-05-27T17:03:53;30.20;44.00
8408;DHT22;4241;48.452;9.216;2023-05-27T17:06:21;31.10;48.60
8408;DHT22;4241;48.452;9.216;2023-05-27T17:08:48;31.40;48.80
8408;DHT22;4241;48.452;9.216;2023-05-27T17:11:14;31.50;48.80
8408;DHT22;4241;48.452;9.216;2023-05-27T17:13:41;31.60;49.20
8408;DHT22;4241;48.452;9.216;2023-05-27T17:16:08;31.60;46.70
8408;DHT22;4241;48.452;9.216;2023-05-27T17:18:35;31.70;44.20
8408;DHT22;4241;48.452;9.216;2023-05-27T17:21:02;31.80;43.90
8408;DHT22;4241;48.452;9.216;2023-05-27T17:23:33;31.60;38.30
8408;DHT22;4241;48.452;9.216;2023-05-27T17:25:59;31.40;40.40
8408;DHT22;4241;48.452;9.216;2023-05-27T17:28:26;31.60;43.80
8408;DHT22;4241;48.452;9.216;2023-05-27T17:30:53;31.60;46.10
8408;DHT22;4241;48.452;9.216;2023-05-27T17:33:20;31.80;47.10
8408;DHT22;4241;48.452;9.216;2023-05-27T17:35:47;31.90;45.90
8408;DHT22;4241;48.452;9.216;2023-05-27T17:38:14;32.00;46.80
8408;DHT22;4241;48.452;9.216;2023-05-27T17:40:43;31.70;42.10
8408;DHT22;4241;48.452;9.216;2023-05-27T17:43:10;31.10;44.20